createdAt,value
2022-11-24T00:02:41.081Z,34.40
2022-11-24T00:05:45.817Z,35.70
2022-11-24T00:08:47.668Z,34.10
2022-11-24T00:11:49.269Z,36.40
2022-11-24T00:14:51.003Z,36.80
2022-11-24T00:17:52.740Z,37.20
2022-11-24T00:20:54.374Z,40.30
2022-11-24T00:23:56.823Z,38.10
2022-11-24T00:26:58.408Z,37.50
2022-11-24T00:30:00.135Z,30.40
2022-11-24T00:33:01.776Z,34.50
2022-11-24T00:36:03.554Z,38.60
2022-11-24T00:39:15.295Z,43.10
2022-11-24T00:42:18.014Z,39.10
2022-11-24T00:45:19.746Z,39.80
2022-11-24T00:48:22.272Z,32.40
2022-11-24T00:51:27.317Z,42.10
2022-11-24T00:54:28.933Z,38.80
2022-11-24T00:57:30.586Z,38.30
2022-11-24T01:00:32.280Z,39.60
2022-11-24T01:03:34.168Z,31.70
2022-11-24T01:06:42.912Z,39.10
2022-11-24T01:09:45.321Z,41.30
2022-11-24T01:12:50.982Z,39.10
2022-11-24T01:15:52.820Z,41.40
2022-11-24T01:18:55.608Z,43.60
2022-11-24T01:21:57.231Z,38.70
2022-11-24T01:24:58.879Z,39.10
2022-11-24T01:28:09.616Z,42.30
2022-11-24T01:31:15.050Z,46.20
2022-11-24T01:34:16.919Z,43.90
2022-11-24T01:37:18.645Z,42.70
2022-11-24T01:40:20.457Z,45.60
2022-11-24T01:43:22.088Z,39.30
2022-11-24T01:46:31.899Z,40.50
2022-11-24T01:49:47.452Z,37.60
2022-11-24T01:52:55.068Z,40.40
2022-11-24T01:55:57.486Z,37.80
2022-11-24T01:59:02.337Z,38.70
2022-11-24T02:02:04.266Z,36.20
2022-11-24T02:05:12.910Z,39.40
2022-11-24T02:08:25.493Z,40.60
2022-11-24T02:14:30.533Z,35.80
2022-11-24T02:17:32.361Z,36.50
2022-11-24T02:20:34.039Z,38.20
2022-11-24T02:23:56.632Z,43.30
2022-11-24T02:26:58.463Z,40.80
2022-11-24T02:30:00.318Z,36.90
2022-11-24T02:33:02.384Z,47.00
2022-11-24T02:36:06.624Z,41.30
2022-11-24T02:39:15.682Z,44.30
2022-11-24T02:42:17.448Z,40.70
2022-11-24T02:45:20.459Z,45.30
2022-11-24T02:48:22.178Z,35.80
2022-11-24T02:51:23.870Z,38.20
2022-11-24T02:54:26.062Z,33.20
2022-11-24T02:57:27.642Z,37.70
2022-11-24T03:00:29.486Z,38.60
2022-11-24T03:03:31.379Z,34.60
2022-11-24T03:06:33.080Z,36.90
2022-11-24T03:09:34.937Z,34.70
2022-11-24T03:12:36.588Z,35.70
2022-11-24T03:15:38.246Z,36.90
2022-11-24T03:18:39.830Z,36.10
2022-11-24T03:21:41.656Z,37.30
2022-11-24T03:24:43.302Z,39.10
2022-11-24T03:27:54.012Z,34.20
2022-11-24T03:30:55.783Z,36.70
2022-11-24T03:33:57.476Z,25.20
2022-11-24T03:36:59.192Z,31.20
2022-11-24T03:40:00.900Z,36.10
2022-11-24T03:43:02.581Z,37.50
2022-11-24T03:46:04.720Z,39.10
2022-11-24T03:49:09.076Z,34.40
2022-11-24T03:52:10.665Z,38.10
2022-11-24T03:55:12.312Z,35.20
2022-11-24T03:58:14.013Z,38.70
2022-11-24T04:01:15.815Z,38.70
2022-11-24T04:04:17.464Z,36.80
2022-11-24T04:07:19.256Z,25.90
2022-11-24T04:10:20.950Z,38.90
2022-11-24T04:13:24.783Z,36.30
2022-11-24T04:16:26.567Z,33.80
2022-11-24T04:19:28.238Z,35.10
2022-11-24T04:22:30.091Z,34.60
2022-11-24T04:25:31.960Z,33.90
2022-11-24T04:28:33.630Z,28.60
2022-11-24T04:31:35.387Z,27.80
2022-11-24T04:34:37.079Z,33.10
2022-11-24T04:37:39.042Z,36.20
2022-11-24T04:40:40.653Z,32.70
2022-11-24T04:43:42.254Z,31.10
2022-11-24T04:46:44.003Z,32.00
2022-11-24T04:49:49.526Z,23.70
2022-11-24T04:52:51.982Z,34.30
2022-11-24T04:55:53.589Z,35.00
2022-11-24T04:58:56.810Z,27.20
2022-11-24T05:01:58.504Z,31.90
2022-11-24T05:05:00.225Z,33.20
2022-11-24T05:08:02.088Z,35.60
2022-11-24T05:11:09.840Z,32.50
2022-11-24T05:14:11.632Z,35.40
2022-11-24T05:17:13.238Z,31.90
2022-11-24T05:20:24.338Z,31.40
2022-11-24T05:23:26.638Z,25.50
2022-11-24T05:26:28.366Z,28.00
2022-11-24T05:29:29.962Z,32.50
2022-11-24T05:32:31.745Z,28.40
2022-11-24T05:35:34.883Z,19.20
2022-11-24T05:38:36.483Z,29.70
2022-11-24T05:41:38.109Z,27.50
2022-11-24T05:44:39.665Z,27.30
2022-11-24T05:47:42.350Z,55.20
2022-11-24T05:50:44.005Z,47.70
2022-11-24T05:53:48.722Z,43.60
2022-11-24T05:56:50.271Z,47.40
2022-11-24T05:59:51.815Z,31.90
2022-11-24T06:02:54.047Z,56.90
2022-11-24T06:05:55.849Z,66.00
2022-11-24T06:08:58.059Z,47.20
2022-11-24T06:15:01.724Z,57.40
2022-11-24T06:18:03.433Z,52.50
2022-11-24T06:21:12.584Z,33.80
2022-11-24T06:24:14.187Z,35.50
2022-11-24T06:27:16.006Z,40.20
2022-11-24T06:30:17.745Z,42.10
2022-11-24T06:33:19.665Z,36.30
2022-11-24T06:36:21.567Z,37.30
2022-11-24T06:39:23.279Z,27.40
2022-11-24T06:42:24.969Z,23.90
2022-11-24T06:45:26.753Z,23.50
2022-11-24T06:48:29.391Z,24.80
2022-11-24T06:51:31.055Z,27.70
2022-11-24T06:54:33.349Z,32.70
2022-11-24T06:57:35.642Z,32.50
2022-11-24T07:00:38.458Z,32.80
2022-11-24T07:03:40.232Z,34.00
2022-11-24T07:06:42.086Z,33.50
2022-11-24T07:09:43.702Z,35.70
2022-11-24T07:12:45.238Z,37.00
2022-11-24T07:15:47.305Z,42.90
2022-11-24T07:18:50.890Z,39.80
2022-11-24T07:21:53.230Z,33.40
2022-11-24T07:24:54.888Z,38.60
2022-11-24T07:27:57.577Z,46.10
2022-11-24T07:31:03.735Z,43.10
2022-11-24T07:34:05.703Z,52.40
2022-11-24T07:37:07.223Z,50.30
2022-11-24T07:40:10.117Z,42.10
2022-11-24T07:43:15.856Z,49.50
2022-11-24T07:46:21.669Z,49.80
2022-11-24T07:49:23.272Z,55.50
2022-11-24T07:52:26.056Z,57.20
2022-11-24T07:55:27.611Z,45.90
2022-11-24T07:58:32.977Z,44.70
2022-11-24T08:01:35.071Z,47.70
2022-11-24T08:04:37.007Z,46.10
2022-11-24T08:07:38.855Z,42.00
2022-11-24T08:10:40.506Z,41.00
2022-11-24T08:13:42.245Z,39.10
2022-11-24T08:16:44.063Z,33.30
2022-11-24T08:19:45.880Z,36.70
2022-11-24T08:22:47.578Z,37.90
2022-11-24T08:25:54.175Z,28.60
2022-11-24T08:28:59.026Z,37.90
2022-11-24T08:35:13.918Z,27.50
2022-11-24T08:38:16.717Z,44.80
2022-11-24T08:41:18.358Z,53.30
2022-11-24T08:44:19.996Z,48.60
2022-11-24T08:47:22.208Z,51.20
2022-11-24T08:50:24.831Z,46.00
2022-11-24T08:53:26.419Z,44.80
2022-11-24T08:56:30.887Z,47.10
2022-11-24T08:59:33.755Z,43.00
2022-11-24T09:02:35.453Z,49.40
2022-11-24T09:05:51.765Z,34.80
2022-11-24T09:08:54.890Z,41.60
2022-11-24T09:11:56.759Z,44.90
2022-11-24T09:14:58.418Z,47.00
2022-11-24T09:18:00.164Z,46.20
2022-11-24T09:21:15.852Z,47.00
2022-11-24T09:24:17.510Z,43.20
2022-11-24T09:27:19.259Z,43.40
2022-11-24T09:30:28.249Z,41.30
2022-11-24T09:33:31.332Z,42.20
2022-11-24T09:36:33.043Z,43.10
2022-11-24T09:39:34.977Z,44.00
2022-11-24T09:42:53.719Z,41.90
2022-11-24T09:46:17.751Z,43.10
2022-11-24T09:49:54.507Z,44.10
2022-11-24T09:53:05.399Z,47.50
2022-11-24T09:56:23.761Z,47.20
2022-11-24T09:59:26.867Z,44.10
2022-11-24T10:02:28.528Z,41.40
2022-11-24T10:05:35.454Z,48.10
2022-11-24T10:09:01.633Z,37.40
2022-11-24T10:12:12.433Z,34.00
2022-11-24T10:15:38.932Z,42.30
2022-11-24T10:19:02.393Z,39.30
2022-11-24T10:22:25.802Z,40.60
2022-11-24T10:25:45.891Z,39.00
2022-11-24T10:28:54.698Z,39.30
2022-11-24T10:31:57.271Z,39.40
2022-11-24T10:35:15.032Z,41.70
2022-11-24T10:38:41.046Z,35.90
2022-11-24T10:41:58.644Z,33.90
2022-11-24T10:45:03.532Z,31.80
2022-11-24T10:48:26.863Z,31.80
2022-11-24T10:51:49.499Z,33.40
2022-11-24T10:55:03.935Z,36.60
2022-11-24T10:58:16.580Z,34.50
2022-11-24T11:01:28.006Z,34.30
2022-11-24T11:04:33.167Z,34.20
2022-11-24T11:07:34.891Z,45.20
2022-11-24T11:10:36.592Z,29.20
2022-11-24T11:13:50.577Z,31.80
2022-11-24T11:16:54.882Z,33.40
2022-11-24T11:20:02.893Z,39.20
2022-11-24T11:23:16.228Z,33.70
2022-11-24T11:26:33.413Z,33.60
2022-11-24T11:36:20.770Z,37.70
2022-11-24T11:39:43.835Z,35.50
2022-11-24T11:43:02.428Z,40.80
2022-11-24T11:46:11.578Z,39.50
2022-11-24T11:49:13.650Z,45.40
2022-11-24T11:52:28.920Z,39.70
2022-11-24T11:55:33.480Z,41.70
2022-11-24T11:59:05.645Z,36.40
2022-11-24T12:02:24.564Z,37.80
2022-11-24T12:05:36.812Z,39.90
2022-11-24T12:09:19.203Z,42.40
2022-11-24T12:12:54.930Z,36.30
2022-11-24T12:16:06.012Z,35.90
2022-11-24T12:19:31.095Z,37.50
2022-11-24T12:22:45.270Z,36.10
2022-11-24T12:26:12.857Z,39.50
2022-11-24T12:29:22.777Z,38.60
2022-11-24T12:32:30.387Z,44.50
2022-11-24T12:35:45.057Z,45.10
2022-11-24T12:38:49.996Z,42.90
2022-11-24T12:42:19.187Z,40.40
2022-11-24T12:46:01.429Z,40.30
2022-11-24T12:49:38.257Z,41.40
2022-11-24T12:53:02.262Z,42.80
2022-11-24T12:56:09.209Z,43.10
2022-11-24T12:59:16.890Z,43.40
2022-11-24T13:02:56.612Z,44.50
2022-11-24T13:06:12.333Z,46.50
2022-11-24T13:09:14.450Z,48.70
2022-11-24T13:12:16.336Z,50.80
2022-11-24T13:15:43.409Z,52.20
2022-11-24T13:18:53.659Z,46.70
2022-11-24T13:22:07.294Z,55.20
2022-11-24T13:25:20.643Z,51.90
2022-11-24T13:29:06.059Z,56.70
2022-11-24T13:32:14.886Z,49.70
2022-11-24T13:35:16.744Z,50.60
2022-11-24T13:38:53.735Z,56.90
2022-11-24T13:42:01.474Z,51.30
2022-11-24T13:45:49.849Z,55.80
2022-11-24T13:48:58.077Z,54.70
2022-11-24T13:52:37.771Z,55.80
2022-11-24T13:55:41.304Z,63.00
2022-11-24T13:58:53.901Z,58.30
2022-11-24T14:01:57.061Z,52.70
2022-11-24T14:04:58.769Z,54.90
2022-11-24T14:08:01.229Z,58.30
2022-11-24T14:11:12.501Z,58.50
2022-11-24T14:14:20.846Z,53.50
2022-11-24T14:17:24.840Z,56.50
2022-11-24T14:20:27.800Z,59.70
2022-11-24T14:23:30.780Z,59.70
2022-11-24T14:26:33.687Z,66.50
2022-11-24T14:29:35.363Z,58.20
2022-11-24T14:32:39.658Z,58.70
2022-11-24T14:35:44.550Z,59.00
2022-11-24T14:38:48.335Z,59.90
2022-11-24T14:42:20.684Z,59.30
2022-11-24T14:45:22.338Z,60.50
2022-11-24T14:48:30.940Z,56.50
2022-11-24T14:51:36.900Z,61.40
2022-11-24T14:55:12.242Z,59.50
2022-11-24T14:58:38.978Z,62.50
2022-11-24T15:01:43.668Z,55.80
2022-11-24T15:05:05.350Z,58.20
2022-11-24T15:08:13.651Z,60.20
2022-11-24T15:11:15.493Z,62.90
2022-11-24T15:14:31.876Z,62.30
2022-11-24T15:17:33.938Z,62.20
2022-11-24T15:20:41.656Z,65.50
2022-11-24T15:24:04.334Z,60.30
2022-11-24T15:30:11.689Z,54.20
2022-11-24T15:33:16.721Z,54.90
2022-11-24T15:36:20.088Z,54.10
2022-11-24T15:39:21.680Z,53.20
2022-11-24T15:42:23.298Z,57.10
2022-11-24T15:45:25.918Z,60.10
2022-11-24T15:48:28.572Z,60.10
2022-11-24T15:51:33.402Z,59.00
2022-11-24T15:54:35.832Z,61.10
2022-11-24T15:57:37.599Z,64.90
2022-11-24T16:00:42.777Z,70.10
2022-11-24T16:03:47.498Z,66.60
2022-11-24T16:06:49.930Z,57.50
2022-11-24T16:09:52.170Z,51.30
2022-11-24T16:12:53.786Z,54.40
2022-11-24T16:15:55.454Z,55.50
2022-11-24T16:18:57.075Z,51.10
2022-11-24T16:21:58.670Z,48.90
2022-11-24T16:25:00.272Z,54.80
2022-11-24T16:28:01.875Z,57.00
2022-11-24T16:31:03.770Z,91.40
2022-11-24T16:34:05.581Z,230.40
2022-11-24T16:37:07.207Z,125.30
2022-11-24T16:40:09.345Z,60.90
2022-11-24T16:46:21.064Z,74.20
2022-11-24T16:49:22.987Z,131.60
2022-11-24T16:52:24.582Z,134.80
2022-11-24T16:55:26.164Z,85.80
2022-11-24T16:58:27.990Z,78.20
2022-11-24T17:01:30.005Z,62.50
2022-11-24T17:04:31.904Z,64.20
2022-11-24T17:07:33.783Z,74.40
2022-11-24T17:10:41.336Z,87.70
2022-11-24T17:13:44.893Z,81.60
2022-11-24T17:16:46.793Z,87.60
2022-11-24T17:19:48.559Z,63.00
2022-11-24T17:22:50.204Z,73.00
2022-11-24T17:25:52.019Z,80.10
2022-11-24T17:28:54.045Z,46.70
2022-11-24T17:31:55.985Z,62.30
2022-11-24T17:34:59.223Z,68.60
2022-11-24T17:38:03.704Z,68.40
2022-11-24T17:41:05.537Z,67.90
2022-11-24T17:44:08.082Z,46.90
2022-11-24T17:47:42.468Z,55.30
2022-11-24T17:50:44.065Z,51.50
2022-11-24T17:53:48.716Z,56.00
2022-11-24T17:56:50.488Z,50.10
2022-11-24T17:59:52.558Z,64.20
2022-11-24T18:02:56.151Z,77.40
2022-11-24T18:06:04.915Z,92.30
2022-11-24T18:09:06.567Z,84.50
2022-11-24T18:12:08.210Z,59.40
2022-11-24T18:15:12.978Z,56.80
2022-11-24T18:18:14.606Z,56.30
2022-11-24T18:21:16.823Z,60.00
2022-11-24T18:24:22.657Z,63.60
2022-11-24T18:27:25.887Z,57.00
2022-11-24T18:30:27.615Z,61.80
2022-11-24T18:33:29.849Z,51.10
2022-11-24T18:39:33.411Z,70.60
2022-11-24T18:42:35.006Z,72.20
2022-11-24T18:45:37.683Z,104.40
2022-11-24T18:48:39.631Z,125.60
2022-11-24T18:51:41.292Z,116.90
2022-11-24T18:54:42.969Z,99.80
2022-11-24T18:57:44.550Z,93.70
2022-11-24T19:00:46.175Z,91.40
2022-11-24T19:03:50.303Z,86.90
2022-11-24T19:06:51.873Z,93.30
2022-11-24T19:09:53.463Z,95.40
2022-11-24T19:12:55.424Z,81.20
2022-11-24T19:15:59.659Z,85.30
2022-11-24T19:19:02.321Z,70.50
2022-11-24T19:22:03.850Z,69.10
2022-11-24T19:25:06.158Z,62.80
2022-11-24T19:28:11.862Z,63.60
2022-11-24T19:31:16.554Z,63.20
2022-11-24T19:34:18.221Z,60.30
2022-11-24T19:37:20.870Z,65.90
2022-11-24T19:40:22.490Z,61.80
2022-11-24T19:43:24.050Z,59.90
2022-11-24T19:46:27.957Z,63.80
2022-11-24T19:49:29.978Z,64.80
2022-11-24T19:52:31.656Z,66.80
2022-11-24T19:55:33.272Z,70.90
2022-11-24T19:58:35.892Z,72.70
2022-11-24T20:01:39.411Z,80.40
2022-11-24T20:04:42.335Z,73.10
2022-11-24T20:07:44.173Z,75.10
2022-11-24T20:10:45.807Z,74.30
2022-11-24T20:13:49.134Z,52.50
2022-11-24T20:16:51.118Z,75.00
2022-11-24T20:19:52.778Z,72.30
2022-11-24T20:22:54.365Z,74.80
2022-11-24T20:26:01.185Z,75.10
2022-11-24T20:29:03.695Z,78.00
2022-11-24T20:32:05.396Z,84.10
2022-11-24T20:35:07.448Z,80.90
2022-11-24T20:38:09.531Z,84.00
2022-11-24T20:41:14.256Z,87.30
2022-11-24T20:44:17.841Z,83.80
2022-11-24T20:47:19.517Z,81.70
2022-11-24T20:50:21.127Z,90.50
2022-11-24T20:53:23.051Z,89.70
2022-11-24T20:56:36.714Z,82.40
2022-11-24T20:59:38.410Z,87.50
2022-11-24T21:02:40.011Z,64.90
2022-11-24T21:05:43.898Z,81.00
2022-11-24T21:08:45.580Z,88.20
2022-11-24T21:11:47.449Z,93.30
2022-11-24T21:14:49.108Z,92.90
2022-11-24T21:17:52.088Z,86.90
2022-11-24T21:20:53.740Z,85.60
2022-11-24T21:23:55.480Z,83.00
2022-11-24T21:26:57.138Z,87.60
2022-11-24T21:29:58.878Z,95.80
2022-11-24T21:33:04.894Z,91.60
2022-11-24T21:36:07.006Z,86.20
2022-11-24T21:39:09.719Z,79.00
2022-11-24T21:42:11.506Z,87.20
2022-11-24T21:45:13.221Z,89.70
2022-11-24T21:48:14.872Z,83.00
2022-11-24T21:51:18.894Z,88.10
2022-11-24T21:54:21.333Z,81.90
2022-11-24T21:57:22.965Z,75.90
2022-11-24T22:00:24.623Z,90.10
2022-11-24T22:03:26.332Z,81.20
2022-11-24T22:06:28.073Z,80.20
2022-11-24T22:09:29.737Z,97.30
2022-11-24T22:12:31.321Z,101.90
2022-11-24T22:15:33.955Z,123.60
2022-11-24T22:18:41.846Z,104.40
2022-11-24T22:21:49.862Z,96.50
2022-11-24T22:24:51.484Z,113.40
2022-11-24T22:27:57.637Z,113.00
2022-11-24T22:31:06.823Z,115.20
2022-11-24T22:34:10.354Z,118.00
2022-11-24T22:37:11.917Z,119.80
2022-11-24T22:40:13.615Z,128.40
2022-11-24T22:43:18.917Z,124.70
2022-11-24T22:46:27.211Z,130.00
2022-11-24T22:49:30.012Z,133.80
2022-11-24T22:52:33.163Z,124.80
2022-11-24T22:55:35.278Z,127.20
2022-11-24T22:58:41.597Z,127.10
2022-11-24T23:01:43.285Z,119.90
2022-11-24T23:04:44.883Z,90.50
2022-11-24T23:07:46.564Z,124.20
2022-11-24T23:10:48.239Z,117.30
2022-11-24T23:13:54.320Z,115.80
2022-11-24T23:16:55.921Z,114.70
2022-11-24T23:19:57.457Z,116.30
2022-11-24T23:22:59.071Z,121.50
2022-11-24T23:26:02.722Z,117.90
2022-11-24T23:29:05.539Z,124.30
2022-11-24T23:32:07.152Z,118.10
2022-11-24T23:35:13.620Z,115.40
2022-11-24T23:38:15.664Z,119.80
2022-11-24T23:41:19.784Z,92.00
2022-11-24T23:44:21.466Z,117.30
2022-11-24T23:47:23.041Z,112.70
2022-11-24T23:50:24.592Z,104.20
2022-11-24T23:53:26.209Z,86.20
2022-11-24T23:56:32.063Z,114.30
2022-11-24T23:59:33.721Z,108.30
